createdAt,value
2018-04-30T00:00:21.960Z,95.87
2018-04-30T00:02:48.016Z,97.75
2018-04-30T00:05:14.037Z,98.81
2018-04-30T00:07:40.025Z,99.11
2018-04-30T00:10:13.063Z,98.29
2018-04-30T00:12:39.195Z,97.49
2018-04-30T00:15:05.202Z,97.57
2018-04-30T00:17:31.238Z,97.57
2018-04-30T00:19:57.270Z,95.14
2018-04-30T00:22:23.294Z,85.05
2018-04-30T00:24:49.351Z,80.97
2018-04-30T00:27:15.370Z,79.56
2018-04-30T00:29:41.363Z,78.05
2018-04-30T00:32:07.517Z,76.85
2018-04-30T00:34:33.529Z,81.91
2018-04-30T00:36:59.557Z,91.24
2018-04-30T00:39:25.553Z,95.74
2018-04-30T00:41:51.668Z,84.45
2018-04-30T00:44:17.673Z,78.69
2018-04-30T00:46:43.713Z,86.82
2018-04-30T00:49:09.831Z,83.10
2018-04-30T00:51:35.948Z,77.52
2018-04-30T00:54:01.987Z,78.66
2018-04-30T00:56:27.977Z,90.56
2018-04-30T00:58:54.013Z,93.91
2018-04-30T01:01:20.045Z,94.40
2018-04-30T01:03:46.080Z,96.50
2018-04-30T01:06:12.094Z,82.02
2018-04-30T01:08:38.891Z,79.04
2018-04-30T01:11:04.898Z,83.85
2018-04-30T01:13:30.908Z,84.56
2018-04-30T01:15:56.883Z,86.34
2018-04-30T08:56:06.492Z,90.50
2018-04-30T08:58:32.517Z,84.11
2018-04-30T09:00:58.596Z,90.12
2018-04-30T09:03:24.662Z,90.46
2018-04-30T09:05:50.652Z,92.13
2018-04-30T09:08:16.725Z,93.03
2018-04-30T09:10:42.780Z,91.45
2018-04-30T09:13:08.823Z,90.66
2018-04-30T09:15:34.881Z,91.32
2018-04-30T09:18:00.942Z,91.73
2018-04-30T09:20:26.993Z,91.90
2018-04-30T09:22:53.012Z,92.35
2018-04-30T09:25:19.066Z,91.78
2018-04-30T09:27:45.120Z,91.24
2018-04-30T09:30:11.169Z,92.46
2018-04-30T09:32:37.277Z,92.99
2018-04-30T09:35:03.353Z,94.16
2018-04-30T09:37:29.352Z,96.13
2018-04-30T09:39:55.361Z,96.24
2018-04-30T09:42:21.392Z,95.17
2018-04-30T09:44:47.462Z,96.39
2018-04-30T09:47:13.563Z,96.25
2018-04-30T09:49:44.787Z,96.06
2018-04-30T09:52:10.842Z,95.88
2018-04-30T09:54:36.955Z,94.48
2018-04-30T09:57:02.971Z,92.28
2018-04-30T09:59:29.010Z,90.44
2018-04-30T10:01:55.053Z,91.62
2018-04-30T10:04:21.108Z,91.34
2018-04-30T10:06:47.140Z,92.02
2018-04-30T10:09:13.266Z,93.85
2018-04-30T10:11:39.287Z,95.54
2018-04-30T10:14:05.296Z,95.90
2018-04-30T10:16:31.324Z,93.39
2018-04-30T10:18:57.294Z,92.43
2018-04-30T10:21:23.293Z,92.56
2018-04-30T10:23:49.410Z,93.86
2018-04-30T10:26:15.397Z,93.78
2018-04-30T10:28:41.429Z,93.17
2018-04-30T10:31:07.464Z,96.04
2018-04-30T10:33:33.472Z,96.65
2018-04-30T10:35:59.527Z,96.39
2018-04-30T10:38:25.562Z,92.52
2018-04-30T10:40:51.586Z,95.55
2018-04-30T10:43:17.709Z,93.29
2018-04-30T10:45:43.804Z,93.15
2018-04-30T10:48:09.762Z,94.47
2018-04-30T10:50:36.425Z,92.85
2018-04-30T10:53:02.514Z,94.12
2018-04-30T10:55:28.589Z,94.28
2018-04-30T10:57:54.857Z,94.60
2018-04-30T11:00:20.932Z,95.62
2018-04-30T11:02:47.020Z,95.79
2018-04-30T11:05:13.064Z,94.79
2018-04-30T11:07:39.064Z,95.02
2018-04-30T11:10:05.196Z,95.79
2018-04-30T11:12:31.330Z,96.55
2018-04-30T11:14:57.300Z,95.03
2018-04-30T11:17:23.347Z,95.98
2018-04-30T11:19:49.400Z,95.14
2018-04-30T11:22:15.393Z,93.70
2018-04-30T11:24:41.424Z,93.38
2018-04-30T11:27:07.505Z,93.92
2018-04-30T11:29:33.528Z,95.75
2018-04-30T11:31:59.621Z,95.41
2018-04-30T11:34:25.652Z,95.15
2018-04-30T11:36:51.727Z,95.21
2018-04-30T11:39:17.768Z,94.38
2018-04-30T11:41:43.906Z,95.50
2018-04-30T11:44:09.941Z,94.63
2018-04-30T11:46:35.985Z,93.21
2018-04-30T11:49:03.073Z,93.72
2018-04-30T11:51:29.095Z,95.32
2018-04-30T11:53:55.122Z,94.91
2018-04-30T11:56:21.166Z,94.48
2018-04-30T11:58:47.236Z,93.16
2018-04-30T12:01:13.236Z,93.19
2018-04-30T12:03:39.295Z,94.76
2018-04-30T12:06:05.388Z,95.20
2018-04-30T12:08:31.435Z,94.43
2018-04-30T12:10:57.583Z,95.08
2018-04-30T12:13:23.588Z,93.95
2018-04-30T12:15:49.649Z,94.32
2018-04-30T12:18:15.736Z,93.56
2018-04-30T12:20:41.865Z,94.02
2018-04-30T12:23:08.018Z,94.47
2018-04-30T12:25:34.194Z,95.08
2018-04-30T12:28:00.248Z,95.26
2018-04-30T12:30:26.262Z,94.59
2018-04-30T12:32:53.361Z,89.84
2018-04-30T12:35:19.415Z,91.13
2018-04-30T12:37:45.628Z,92.24
2018-04-30T12:40:11.701Z,94.79
2018-04-30T12:42:37.729Z,94.91
2018-04-30T12:45:03.787Z,94.31
2018-04-30T12:47:29.936Z,94.58
2018-04-30T12:49:56.064Z,94.89
2018-04-30T12:52:22.120Z,94.60
2018-04-30T12:54:48.211Z,94.12
2018-04-30T12:57:14.344Z,94.27
2018-04-30T12:59:40.495Z,95.07
2018-04-30T13:02:06.502Z,94.56
2018-04-30T13:04:32.614Z,94.47
2018-04-30T13:06:58.780Z,93.21
2018-04-30T13:09:24.886Z,93.19
2018-04-30T13:11:50.968Z,93.45
2018-04-30T13:14:17.053Z,93.73
2018-04-30T13:16:43.119Z,94.95
2018-04-30T13:19:09.188Z,94.62
2018-04-30T13:21:35.294Z,95.08
2018-04-30T13:24:01.358Z,95.66
2018-04-30T13:26:27.432Z,95.35
2018-04-30T13:28:53.463Z,94.14
2018-04-30T13:31:19.489Z,94.85
2018-04-30T13:33:45.636Z,94.66
2018-04-30T13:36:11.645Z,94.26
2018-04-30T13:38:37.641Z,95.14
2018-04-30T13:41:03.688Z,94.54
2018-04-30T13:43:29.708Z,94.17
2018-04-30T13:45:55.711Z,94.55
2018-04-30T13:48:21.782Z,93.69
2018-04-30T13:50:47.961Z,93.59
2018-04-30T13:53:14.077Z,94.93
2018-04-30T13:55:40.137Z,95.74
2018-04-30T13:58:06.153Z,95.47
2018-04-30T14:00:32.232Z,95.91
2018-04-30T14:02:58.296Z,96.00
2018-04-30T14:05:24.340Z,95.48
2018-04-30T14:07:50.410Z,95.44
2018-04-30T14:10:16.520Z,96.50
2018-04-30T14:12:42.586Z,96.58
2018-04-30T14:15:08.604Z,96.80
2018-04-30T14:17:34.648Z,96.23
2018-04-30T14:20:00.839Z,95.80
2018-04-30T14:22:26.874Z,96.25
2018-04-30T14:24:52.933Z,96.10
2018-04-30T14:27:18.995Z,96.46
2018-04-30T14:29:44.984Z,96.20
2018-04-30T14:32:11.032Z,96.20
2018-04-30T14:34:37.047Z,95.49
2018-04-30T14:37:03.057Z,94.73
2018-04-30T14:39:29.062Z,94.29
2018-04-30T14:41:55.110Z,94.37
2018-04-30T14:44:21.134Z,94.29
2018-04-30T14:46:47.217Z,93.87
2018-04-30T14:49:13.200Z,94.13
2018-04-30T14:51:39.228Z,93.46
2018-04-30T14:54:05.273Z,93.36
2018-04-30T14:56:31.319Z,92.78
2018-04-30T14:58:57.373Z,91.97
2018-04-30T15:01:23.447Z,91.95
2018-04-30T15:03:49.537Z,91.96
2018-04-30T15:06:15.619Z,92.45
2018-04-30T15:08:41.624Z,92.64
2018-04-30T15:11:07.728Z,91.97
2018-04-30T15:13:33.874Z,92.11
2018-04-30T15:15:59.912Z,91.37
2018-04-30T15:18:25.985Z,91.60
2018-04-30T15:20:52.874Z,92.12
2018-04-30T15:23:18.961Z,92.23
2018-04-30T15:25:45.022Z,91.99
2018-04-30T15:28:11.308Z,91.43
2018-04-30T15:30:37.132Z,91.80
2018-04-30T15:33:03.188Z,91.93
2018-04-30T15:35:29.255Z,91.08
2018-04-30T15:37:55.279Z,91.73
2018-04-30T15:40:21.420Z,92.35
2018-04-30T15:42:47.460Z,90.77
2018-04-30T15:45:13.478Z,92.62
2018-04-30T15:47:39.521Z,91.22
2018-04-30T15:50:05.524Z,91.69
2018-04-30T15:52:31.723Z,91.71
2018-04-30T15:54:57.763Z,90.79
2018-04-30T15:57:23.809Z,91.27
2018-04-30T15:59:50.004Z,91.84
2018-04-30T16:02:16.244Z,91.56
2018-04-30T16:04:42.524Z,90.04
2018-04-30T16:07:08.734Z,91.16
2018-04-30T16:09:34.769Z,90.35
2018-04-30T16:12:00.864Z,89.36
2018-04-30T16:14:26.991Z,89.80
2018-04-30T16:16:53.077Z,89.99
2018-04-30T16:19:19.692Z,90.39
2018-04-30T16:21:45.761Z,89.65
2018-04-30T16:24:11.793Z,89.34
2018-04-30T16:26:37.875Z,89.49
2018-04-30T16:29:03.893Z,89.18
2018-04-30T16:31:29.937Z,90.00
2018-04-30T16:33:56.088Z,88.37
2018-04-30T16:36:22.164Z,88.60
2018-04-30T16:38:48.319Z,87.51
2018-04-30T16:41:14.387Z,87.31
2018-04-30T16:43:40.530Z,88.27
2018-04-30T16:46:06.609Z,87.34
2018-04-30T16:48:32.685Z,86.97
2018-04-30T16:50:58.704Z,87.22
2018-04-30T16:53:24.714Z,88.12
2018-04-30T16:55:50.761Z,87.87
2018-04-30T16:58:16.785Z,89.26
2018-04-30T17:00:42.812Z,89.84
2018-04-30T17:03:08.923Z,89.97
2018-04-30T17:05:35.014Z,90.31
2018-04-30T17:08:01.067Z,90.55
2018-04-30T17:10:27.179Z,90.39
2018-04-30T17:12:53.190Z,90.16
2018-04-30T17:15:19.245Z,91.46
2018-04-30T17:17:45.323Z,92.17
2018-04-30T17:20:11.314Z,92.54
2018-04-30T17:22:37.402Z,93.69
2018-04-30T17:25:03.522Z,93.57
2018-04-30T17:27:29.526Z,93.81
2018-04-30T17:29:55.611Z,93.12
2018-04-30T17:32:21.779Z,93.93
2018-04-30T17:34:47.799Z,92.23
2018-04-30T17:37:13.807Z,93.00
2018-04-30T17:39:39.938Z,93.46
2018-04-30T17:42:05.963Z,93.27
2018-04-30T17:44:32.007Z,93.20
2018-04-30T17:46:58.180Z,93.82
2018-04-30T17:49:24.319Z,93.18
2018-04-30T17:51:50.499Z,93.04
2018-04-30T17:54:16.591Z,92.23
2018-04-30T17:56:42.721Z,92.55
2018-04-30T17:59:08.775Z,91.99
2018-04-30T18:01:34.934Z,91.09
2018-04-30T18:04:00.989Z,91.49
2018-04-30T18:06:27.017Z,90.58
2018-04-30T18:08:53.111Z,89.27
2018-04-30T18:11:19.135Z,90.45
2018-04-30T18:13:45.171Z,90.18
2018-04-30T18:16:11.258Z,91.08
2018-04-30T18:18:37.272Z,90.72
2018-04-30T18:21:03.351Z,90.15
2018-04-30T18:23:29.370Z,89.26
2018-04-30T18:25:55.374Z,89.25
2018-04-30T18:28:21.389Z,89.40
2018-04-30T18:30:47.505Z,90.34
2018-04-30T18:33:13.606Z,90.75
2018-04-30T18:35:39.655Z,91.26
2018-04-30T18:38:05.721Z,91.58
2018-04-30T18:40:31.734Z,92.36
2018-04-30T18:42:57.777Z,92.90
2018-04-30T18:45:23.860Z,92.97
2018-04-30T18:47:49.977Z,92.70
2018-04-30T18:50:15.984Z,92.98
2018-04-30T18:52:42.253Z,93.26
2018-04-30T18:55:08.406Z,93.07
2018-04-30T18:57:34.542Z,93.61
2018-04-30T19:00:00.645Z,93.69
2018-04-30T19:02:26.693Z,93.01
2018-04-30T19:04:52.948Z,93.62
2018-04-30T19:07:19.092Z,93.44
2018-04-30T19:09:45.132Z,93.95
2018-04-30T19:12:11.298Z,93.90
2018-04-30T19:14:37.311Z,94.22
2018-04-30T19:17:03.372Z,93.72
2018-04-30T19:19:29.476Z,94.30
2018-04-30T19:21:55.517Z,94.13
2018-04-30T19:24:21.514Z,94.99
2018-04-30T19:26:47.515Z,95.65
2018-04-30T19:29:13.550Z,95.57
2018-04-30T19:31:39.557Z,95.46
2018-04-30T19:34:05.605Z,95.67
2018-04-30T19:36:31.645Z,95.71
2018-04-30T19:38:57.764Z,95.85
2018-04-30T19:41:23.952Z,96.18
2018-04-30T19:43:50.034Z,96.13
2018-04-30T19:46:16.102Z,94.00
2018-04-30T19:48:42.218Z,93.38
2018-04-30T19:51:08.305Z,93.85
2018-04-30T19:53:34.390Z,93.85
2018-04-30T19:56:00.485Z,93.41
2018-04-30T19:58:26.576Z,93.39
2018-04-30T20:00:52.704Z,93.70
2018-04-30T20:03:18.765Z,93.73
2018-04-30T20:05:44.813Z,94.06
2018-04-30T20:08:10.857Z,93.95
2018-04-30T20:10:36.994Z,94.00
2018-04-30T20:13:03.010Z,93.87
2018-04-30T20:15:29.039Z,93.97
2018-04-30T20:17:55.079Z,94.08
2018-04-30T20:20:21.247Z,93.90
2018-04-30T20:22:47.181Z,94.49
2018-04-30T20:25:13.238Z,94.49
2018-04-30T20:27:39.308Z,94.89
2018-04-30T20:30:05.398Z,94.71
2018-04-30T20:32:31.466Z,95.03
2018-04-30T20:34:57.524Z,95.29
2018-04-30T20:37:23.569Z,95.46
2018-04-30T20:39:50.348Z,95.62
2018-04-30T20:42:16.462Z,95.63
2018-04-30T20:44:42.487Z,95.61
2018-04-30T20:47:08.554Z,95.61
2018-04-30T20:49:34.577Z,95.31
2018-04-30T20:52:00.720Z,95.31
2018-04-30T20:54:26.727Z,95.39
2018-04-30T20:56:52.769Z,95.49
2018-04-30T20:59:18.863Z,95.37
2018-04-30T21:01:44.888Z,95.14
2018-04-30T21:04:10.927Z,94.66
2018-04-30T21:06:37.334Z,93.79
2018-04-30T21:09:12.641Z,93.97
2018-04-30T21:11:38.799Z,93.30
2018-04-30T21:14:04.855Z,93.53
2018-04-30T21:16:30.961Z,93.92
2018-04-30T21:18:57.183Z,93.40
2018-04-30T21:21:23.225Z,93.78
2018-04-30T21:23:49.326Z,93.42
2018-04-30T21:26:15.357Z,93.94
2018-04-30T21:28:41.405Z,94.28
2018-04-30T21:31:07.448Z,94.22
2018-04-30T21:33:33.524Z,94.33
2018-04-30T21:35:59.653Z,94.36
2018-04-30T21:38:25.713Z,94.67
2018-04-30T21:40:51.813Z,95.29
2018-04-30T21:43:18.072Z,95.24
2018-04-30T21:45:44.201Z,95.22
2018-04-30T21:48:10.361Z,95.28
2018-04-30T21:50:36.430Z,95.21
2018-04-30T21:53:02.441Z,95.67
2018-04-30T21:55:28.572Z,95.17
2018-04-30T21:57:54.980Z,95.96
2018-04-30T22:00:26.945Z,94.90
2018-04-30T22:02:52.993Z,94.76
2018-04-30T22:05:19.194Z,94.91
2018-04-30T22:07:45.227Z,94.83
2018-04-30T22:10:11.220Z,93.95
2018-04-30T22:12:37.244Z,93.68
2018-04-30T22:15:03.277Z,92.67
2018-04-30T22:17:29.281Z,92.56
2018-04-30T22:19:55.347Z,92.63
2018-04-30T22:22:21.359Z,93.00
2018-04-30T22:24:47.580Z,92.60
2018-04-30T22:27:13.730Z,93.00
2018-04-30T22:29:39.746Z,93.20
2018-04-30T22:32:06.100Z,93.53
2018-04-30T22:34:32.208Z,93.46
2018-04-30T22:36:58.253Z,93.39
2018-04-30T22:39:24.364Z,93.98
2018-04-30T22:41:50.479Z,93.84
2018-04-30T22:44:16.548Z,93.56
2018-04-30T22:46:43.372Z,93.04
2018-04-30T22:49:09.356Z,92.79
2018-04-30T22:51:35.878Z,92.08
2018-04-30T22:54:02.031Z,93.13
2018-04-30T22:56:28.025Z,93.46
2018-04-30T22:58:54.146Z,94.32
2018-04-30T23:01:20.806Z,94.42
2018-04-30T23:03:46.865Z,94.44
2018-04-30T23:06:12.987Z,94.56
2018-04-30T23:08:38.986Z,94.43
2018-04-30T23:11:04.989Z,94.65
2018-04-30T23:13:31.005Z,94.15
2018-04-30T23:15:57.027Z,94.23
2018-04-30T23:18:23.071Z,93.74
2018-04-30T23:20:49.101Z,93.25
2018-04-30T23:23:15.140Z,93.19
2018-04-30T23:25:41.216Z,93.28
2018-04-30T23:28:07.323Z,93.60
2018-04-30T23:30:33.356Z,93.60
2018-04-30T23:32:59.351Z,93.55
2018-04-30T23:35:26.449Z,93.74
2018-04-30T23:37:52.651Z,93.77
2018-04-30T23:40:18.673Z,93.33
2018-04-30T23:42:44.682Z,93.74
2018-04-30T23:45:11.339Z,95.27
2018-04-30T23:47:37.340Z,95.75
2018-04-30T23:50:03.389Z,94.46
2018-04-30T23:52:29.395Z,94.24
2018-04-30T23:54:55.413Z,94.27
2018-04-30T23:57:21.422Z,94.54
2018-04-30T23:59:47.442Z,93.84
